Time;durP1;ratioP1;P1;durP2;ratioP2;P2;SDS_P1;SDS_P2;PMS_P1;PMS_P2;Temp;Humidity;BMP_temperature;BMP_pressure;BME280_temperature;BME280_humidity;BME280_pressure;Samples;Min_cycle;Max_cycle;Signal;HPM_P1;HPM_P2
2022/12/25 00:00:24;;;;;;;2.13;1.58;;;19.40;54.30;;;;;;6265445;28;20047;-73
2022/12/25 00:03:24;;;;;;;2.63;1.48;;;19.40;54.30;;;;;;6263379;28;20033;-73
2022/12/25 00:06:25;;;;;;;2.20;1.50;;;19.40;54.30;;;;;;6243824;28;20124;-73
2022/12/25 00:09:25;;;;;;;2.58;1.73;;;19.40;54.30;;;;;;6255390;28;20033;-73
2022/12/25 00:12:26;;;;;;;2.50;1.60;;;19.40;54.30;;;;;;6247999;28;20456;-73
2022/12/25 00:15:27;;;;;;;2.58;1.80;;;19.40;54.30;;;;;;6263176;28;20032;-73
2022/12/25 00:18:28;;;;;;;2.67;1.50;;;19.40;54.30;;;;;;6264552;28;20056;-73
2022/12/25 00:21:29;;;;;;;2.42;1.65;;;19.40;54.30;;;;;;6242625;28;20515;-73
2022/12/25 00:24:29;;;;;;;2.90;1.73;;;19.40;54.30;;;;;;6241399;28;20029;-73
2022/12/25 00:27:33;;;;;;;3.15;1.75;;;19.40;54.30;;;;;;6243009;28;20448;-73
2022/12/25 00:30:39;;;;;;;2.55;1.70;;;19.40;54.30;;;;;;6262222;28;20035;-73
2022/12/25 00:33:42;;;;;;;2.35;1.45;;;19.40;54.30;;;;;;6264693;28;20071;-73
2022/12/25 00:36:42;;;;;;;2.92;1.48;;;19.40;54.30;;;;;;6242924;28;20033;-73
2022/12/25 00:39:43;;;;;;;3.35;1.65;;;19.40;54.30;;;;;;6253161;28;20029;-73
2022/12/25 00:42:43;;;;;;;1.75;1.40;;;19.40;54.30;;;;;;6261446;28;20022;-73
2022/12/25 00:45:56;;;;;;;2.15;1.45;;;19.40;54.30;;;;;;6260927;28;20550;-73
2022/12/25 00:48:59;;;;;;;1.88;1.20;;;19.40;54.30;;;;;;6263235;28;20118;-73
2022/12/25 00:51:59;;;;;;;1.63;1.17;;;19.40;54.30;;;;;;6242485;28;20480;-73
2022/12/25 00:55:00;;;;;;;1.90;1.30;;;19.40;54.30;;;;;;6253698;28;20071;-73
2022/12/25 00:58:00;;;;;;;1.92;1.38;;;19.40;54.30;;;;;;6266082;28;20047;-73
2022/12/25 01:01:02;;;;;;;3.38;1.60;;;19.40;54.30;;;;;;6248651;28;20030;-72
2022/12/25 01:04:02;;;;;;;1.52;1.13;;;19.40;54.30;;;;;;6243592;28;20052;-73
2022/12/25 01:07:03;;;;;;;2.03;1.52;;;19.40;54.30;;;;;;6267300;28;20033;-73
2022/12/25 01:10:22;;;;;;;1.83;1.23;;;19.40;54.30;;;;;;6256619;28;20076;-73
2022/12/25 01:13:23;;;;;;;1.75;1.30;;;19.40;54.30;;;;;;6242520;28;20504;-73
2022/12/25 01:16:24;;;;;;;1.90;1.20;;;19.40;54.30;;;;;;6261836;28;20029;-73
2022/12/25 01:19:24;;;;;;;2.38;1.33;;;19.40;54.30;;;;;;6261973;28;20024;-73
2022/12/25 01:22:25;;;;;;;1.85;1.10;;;19.40;54.30;;;;;;6240486;28;20032;-73
2022/12/25 01:25:26;;;;;;;1.92;1.20;;;19.40;54.30;;;;;;6252556;28;20025;-73
2022/12/25 01:28:27;;;;;;;2.08;1.30;;;19.40;54.30;;;;;;6267299;28;20057;-73
2022/12/25 01:31:27;;;;;;;2.15;1.20;;;19.40;54.30;;;;;;6248565;28;20030;-73
2022/12/25 01:34:28;;;;;;;1.45;0.88;;;19.40;54.90;;;;;;6245565;28;20028;-73
2022/12/25 01:37:28;;;;;;;1.65;1.30;;;19.40;54.30;;;;;;6271944;28;20037;-73
2022/12/25 01:40:29;;;;;;;1.88;1.00;;;19.40;54.30;;;;;;6263102;28;20030;-73
2022/12/25 01:43:32;;;;;;;1.75;1.17;;;19.40;54.30;;;;;;6257509;28;20027;-73
2022/12/25 01:46:34;;;;;;;1.90;1.23;;;19.40;54.30;;;;;;6253061;28;20384;-73
2022/12/25 01:49:37;;;;;;;2.10;1.20;;;19.40;54.30;;;;;;6246697;28;20053;-73
2022/12/25 01:52:38;;;;;;;2.65;1.30;;;19.40;54.30;;;;;;6221912;28;20034;-73
2022/12/25 01:55:42;;;;;;;2.17;1.27;;;19.40;54.30;;;;;;6238377;28;20025;-73
2022/12/25 01:58:42;;;;;;;1.92;1.20;;;19.40;54.20;;;;;;6271428;28;20039;-73
2022/12/25 02:01:43;;;;;;;1.67;1.00;;;19.40;54.30;;;;;;6255245;28;20460;-73
2022/12/25 02:04:55;;;;;;;1.45;0.90;;;19.40;54.20;;;;;;6246458;28;20025;-73
2022/12/25 02:07:59;;;;;;;2.05;1.23;;;19.40;54.20;;;;;;6222215;28;20057;-73
2022/12/25 02:11:00;;;;;;;2.27;1.23;;;19.40;54.30;;;;;;6239198;28;20482;-72
2022/12/25 02:14:00;;;;;;;1.52;1.05;;;19.40;54.20;;;;;;6271145;28;20032;-73
2022/12/25 02:17:04;;;;;;;1.58;1.00;;;19.40;54.20;;;;;;6264852;28;20466;-73
2022/12/25 02:20:23;;;;;;;1.05;0.95;;;19.40;54.20;;;;;;6246525;28;20144;-73
2022/12/25 02:23:48;;;;;;;1.20;0.90;;;19.40;54.20;;;;;;6221663;28;20040;-73
2022/12/25 02:27:00;;;;;;;1.10;1.00;;;19.40;54.20;;;;;;6258826;28;20388;-73
2022/12/25 02:30:07;;;;;;;1.20;0.90;;;19.40;54.20;;;;;;6270664;28;20025;-73
2022/12/25 02:37:17;;;;;;;1.33;0.90;;;19.40;54.20;;;;;;6256765;28;20041;-73
2022/12/25 02:40:24;;;;;;;1.48;0.95;;;19.40;54.20;;;;;;6269374;28;20029;-73
2022/12/25 03:07:21;;;;;;;1.27;0.85;;;19.40;54.10;;;;;;6255958;28;20021;-73
2022/12/25 03:13:46;;;;;;;1.27;0.80;;;19.40;54.20;;;;;;6268399;28;20045;-73
2022/12/25 03:16:52;;;;;;;1.73;1.00;;;19.40;54.10;;;;;;6263557;28;20022;-73
2022/12/25 03:35:21;;;;;;;1.10;0.70;;;19.40;54.10;;;;;;6239344;28;20063;-73
2022/12/25 04:37:48;;;;;;;1.42;1.00;;;19.30;54.20;;;;;;6264790;28;20488;-73
2022/12/25 04:40:48;;;;;;;1.02;0.80;;;19.40;54.30;;;;;;6242742;28;20262;-73
2022/12/25 04:43:49;;;;;;;0.80;0.57;;;19.40;54.30;;;;;;6242945;28;20038;-73
2022/12/25 04:46:49;;;;;;;0.55;0.55;;;19.40;54.30;;;;;;6242407;28;20404;-73
2022/12/25 04:49:50;;;;;;;1.25;0.77;;;19.40;54.40;;;;;;6261716;28;20116;-73
2022/12/25 04:52:51;;;;;;;1.48;0.80;;;19.30;54.30;;;;;;6265574;28;20025;-73
2022/12/25 04:56:00;;;;;;;1.73;0.75;;;19.40;54.40;;;;;;6242808;28;20033;-73
2022/12/25 04:59:00;;;;;;;1.88;0.90;;;19.40;54.40;;;;;;6253086;28;20033;-73
2022/12/25 05:02:01;;;;;;;1.15;0.90;;;19.40;54.40;;;;;;6266943;28;20331;-74
2022/12/25 05:05:02;;;;;;;1.25;0.70;;;19.40;54.40;;;;;;6249128;28;20141;-73
2022/12/25 05:08:04;;;;;;;1.88;0.70;;;19.40;54.50;;;;;;6242468;28;20108;-73
2022/12/25 05:11:10;;;;;;;0.75;0.70;;;19.40;54.40;;;;;;6257750;28;20029;-73
2022/12/25 05:14:11;;;;;;;0.88;0.80;;;19.40;54.50;;;;;;6252582;28;20099;-73
2022/12/25 05:17:12;;;;;;;0.60;0.50;;;19.30;54.40;;;;;;6267108;28;20036;-73
2022/12/25 05:20:12;;;;;;;1.02;0.70;;;19.30;54.40;;;;;;6249809;28;20032;-73
2022/12/25 05:23:13;;;;;;;0.90;0.80;;;19.40;54.50;;;;;;6242822;28;20393;-73
2022/12/25 05:26:16;;;;;;;0.82;0.50;;;19.40;54.50;;;;;;6267178;28;20025;-73
2022/12/25 05:29:17;;;;;;;1.80;0.90;;;19.40;54.50;;;;;;6258944;28;20030;-74
2022/12/25 05:32:18;;;;;;;1.98;0.98;;;19.30;54.50;;;;;;6242027;28;20025;-73
2022/12/25 05:35:18;;;;;;;0.80;0.60;;;19.40;54.50;;;;;;6258951;28;20033;-73
2022/12/25 05:38:19;;;;;;;0.90;0.77;;;19.30;54.50;;;;;;6266577;28;20048;-73
2022/12/25 05:41:19;;;;;;;1.25;0.70;;;19.30;54.50;;;;;;6242982;28;20022;-73
2022/12/25 05:44:20;;;;;;;1.05;0.70;;;19.40;54.50;;;;;;6252662;28;20076;-73
2022/12/25 05:47:21;;;;;;;0.98;0.80;;;19.40;54.60;;;;;;6242074;28;20033;-73
2022/12/25 05:50:21;;;;;;;0.98;0.60;;;19.40;54.50;;;;;;6256531;28;20055;-75
2022/12/25 05:53:22;;;;;;;0.50;0.50;;;19.30;54.50;;;;;;6266895;28;20055;-73
2022/12/25 05:56:23;;;;;;;1.33;0.70;;;19.30;54.50;;;;;;6244244;28;20511;-73
2022/12/25 05:59:23;;;;;;;0.50;0.50;;;19.40;54.50;;;;;;6245206;28;20119;-73
2022/12/25 06:02:25;;;;;;;1.00;0.70;;;19.30;54.50;;;;;;6239190;28;20412;-73
2022/12/25 06:05:25;;;;;;;0.95;0.60;;;19.30;54.50;;;;;;6243632;28;20234;-73
2022/12/25 06:08:26;;;;;;;0.93;0.73;;;19.30;54.50;;;;;;6266268;28;20507;-73
2022/12/25 06:11:26;;;;;;;1.63;0.63;;;19.30;54.50;;;;;;6245741;28;20030;-73
2022/12/25 06:14:27;;;;;;;1.45;0.57;;;19.30;54.50;;;;;;6245199;28;20035;-73
2022/12/25 06:17:28;;;;;;;1.33;0.65;;;19.30;54.50;;;;;;6266468;28;20403;-73
2022/12/25 06:20:29;;;;;;;0.68;0.65;;;19.30;54.50;;;;;;6256022;28;20036;-73
2022/12/25 06:23:29;;;;;;;0.73;0.60;;;19.30;54.50;;;;;;6243874;28;20634;-73
2022/12/25 06:26:30;;;;;;;0.73;0.50;;;19.30;54.50;;;;;;6246086;28;20022;-73
2022/12/25 06:29:30;;;;;;;0.98;0.57;;;19.30;54.50;;;;;;6247974;28;20028;-73
2022/12/25 06:32:31;;;;;;;0.60;0.60;;;19.30;54.50;;;;;;6270511;28;20051;-73
2022/12/25 06:35:31;;;;;;;0.55;0.50;;;19.30;54.50;;;;;;6261079;28;20056;-73
2022/12/25 06:38:32;;;;;;;0.70;0.60;;;19.30;54.50;;;;;;6244285;28;20042;-73
2022/12/25 06:41:33;;;;;;;0.80;0.60;;;19.30;54.50;;;;;;6263124;28;20086;-73
2022/12/25 06:44:33;;;;;;;0.47;0.47;;;19.30;54.50;;;;;;6250943;28;20061;-73
2022/12/25 06:47:35;;;;;;;0.55;0.43;;;19.30;54.60;;;;;;6270561;28;20112;-73
2022/12/25 06:50:40;;;;;;;0.73;0.57;;;19.30;54.50;;;;;;6261859;28;20448;-73
2022/12/25 06:53:41;;;;;;;1.10;0.70;;;19.30;54.50;;;;;;6245691;28;20435;-73
2022/12/25 06:56:42;;;;;;;0.73;0.50;;;19.30;54.50;;;;;;6261929;28;20099;-74
2022/12/25 06:59:42;;;;;;;0.63;0.57;;;19.30;54.50;;;;;;6270084;28;20506;-73
2022/12/25 07:02:46;;;;;;;1.23;0.70;;;19.30;54.50;;;;;;6245257;28;20029;-73
2022/12/25 07:05:47;;;;;;;0.40;0.40;;;19.30;55.20;;;;;;6252941;28;20439;-73
2022/12/25 07:08:48;;;;;;;1.55;0.63;;;19.30;54.50;;;;;;6270457;28;20029;-73
2022/12/25 07:11:48;;;;;;;0.85;0.50;;;19.30;54.50;;;;;;6267429;28;20025;-74
2022/12/25 07:14:53;;;;;;;0.70;0.50;;;19.30;54.50;;;;;;6269816;28;20476;-73
2022/12/25 07:17:54;;;;;;;0.70;0.43;;;19.30;54.50;;;;;;6245821;28;20163;-73
2022/12/25 07:20:54;;;;;;;0.70;0.50;;;19.30;54.60;;;;;;6251248;28;20033;-73
2022/12/25 07:23:55;;;;;;;0.40;0.40;;;19.30;54.50;;;;;;6269259;28;20029;-73
2022/12/25 07:26:55;;;;;;;1.15;0.57;;;19.30;54.50;;;;;;6255046;28;20387;-73
2022/12/25 07:29:56;;;;;;;0.70;0.57;;;19.30;54.50;;;;;;6244887;28;20044;-73
2022/12/25 07:32:57;;;;;;;0.70;0.47;;;19.30;54.50;;;;;;6266317;28;20151;-73
2022/12/25 07:35:57;;;;;;;0.50;0.50;;;19.30;54.50;;;;;;6264017;28;20535;-73
2022/12/25 07:38:58;;;;;;;0.50;0.50;;;19.30;54.50;;;;;;6244762;28;20079;-73
2022/12/25 07:41:59;;;;;;;1.30;0.70;;;19.30;54.50;;;;;;6257179;28;20029;-73
2022/12/25 07:44:59;;;;;;;0.80;0.70;;;19.30;54.50;;;;;;6246528;28;20092;-73
2022/12/25 07:48:00;;;;;;;0.52;0.50;;;19.30;54.50;;;;;;6264320;28;20025;-73
2022/12/25 07:51:06;;;;;;;0.80;0.63;;;19.30;54.50;;;;;;6265602;28;20053;-73
2022/12/25 07:54:07;;;;;;;0.57;0.50;;;19.30;54.50;;;;;;6243621;28;20028;-73
2022/12/25 07:57:08;;;;;;;0.70;0.60;;;19.30;54.50;;;;;;6255731;28;20100;-73
2022/12/25 08:00:09;;;;;;;1.33;0.80;;;19.30;54.50;;;;;;6268745;28;20028;-73
2022/12/25 08:03:09;;;;;;;0.93;0.65;;;19.30;54.50;;;;;;6248781;28;20584;-73
2022/12/25 08:06:10;;;;;;;0.68;0.50;;;19.30;54.50;;;;;;6246074;28;20025;-74
2022/12/25 08:09:12;;;;;;;0.98;0.60;;;19.30;54.50;;;;;;6264803;28;20036;-73
2022/12/25 08:12:12;;;;;;;0.57;0.40;;;19.30;55.20;;;;;;6258105;28;20521;-73
2022/12/25 08:15:13;;;;;;;0.68;0.50;;;19.30;54.50;;;;;;6268258;28;20032;-73
2022/12/25 08:18:14;;;;;;;1.02;0.60;;;19.30;54.50;;;;;;6248732;28;20038;-73
2022/12/25 08:21:15;;;;;;;1.20;0.60;;;19.30;54.50;;;;;;6244519;28;20030;-73
2022/12/25 08:24:15;;;;;;;1.20;0.73;;;19.30;54.50;;;;;;6264216;28;20029;-75
2022/12/25 08:27:16;;;;;;;0.93;0.65;;;19.30;54.50;;;;;;6259603;28;20079;-73
2022/12/25 08:30:17;;;;;;;1.10;0.52;;;19.30;54.50;;;;;;6243441;28;20033;-74
2022/12/25 08:33:17;;;;;;;1.05;0.60;;;19.30;54.60;;;;;;6259416;28;20021;-73
2022/12/25 08:36:18;;;;;;;1.27;0.70;;;19.30;54.50;;;;;;6267662;28;20036;-73
2022/12/25 08:39:19;;;;;;;0.93;0.60;;;19.30;54.60;;;;;;6243772;28;20026;-73
2022/12/25 08:42:20;;;;;;;1.27;0.55;;;19.30;54.50;;;;;;6248691;28;20021;-73
2022/12/25 08:45:20;;;;;;;0.70;0.50;;;19.30;54.50;;;;;;6242579;28;20026;-73
2022/12/25 08:48:21;;;;;;;0.73;0.52;;;19.30;54.50;;;;;;6257772;28;20025;-73
2022/12/25 08:51:23;;;;;;;0.80;0.70;;;19.30;54.50;;;;;;6267564;28;20122;-73
2022/12/25 08:54:24;;;;;;;0.75;0.63;;;19.30;54.50;;;;;;6244637;28;20021;-73
2022/12/25 08:57:24;;;;;;;0.95;0.70;;;19.30;54.50;;;;;;6226460;28;20081;-73
2022/12/25 09:00:25;;;;;;;0.98;0.57;;;19.30;54.50;;;;;;6249580;28;20379;-73
2022/12/25 09:03:26;;;;;;;0.63;0.47;;;19.30;54.50;;;;;;6249543;28;20022;-73
2022/12/25 09:06:26;;;;;;;1.35;0.90;;;19.30;54.50;;;;;;6218514;28;20022;-73
2022/12/25 09:09:27;;;;;;;0.80;0.55;;;19.30;54.60;;;;;;6238115;28;20033;-73
2022/12/25 09:12:28;;;;;;;0.52;0.50;;;19.30;54.50;;;;;;6240977;28;20747;-74
2022/12/25 09:15:29;;;;;;;2.22;0.60;;;19.40;54.50;;;;;;6261027;28;20025;-73
2022/12/25 09:18:29;;;;;;;0.40;0.40;;;19.40;54.50;;;;;;6248086;28;20025;-74
2022/12/25 09:21:30;;;;;;;0.60;0.50;;;19.30;54.50;;;;;;6239269;28;20100;-73
2022/12/25 09:24:30;;;;;;;0.70;0.50;;;19.30;54.50;;;;;;6241059;28;20024;-74
2022/12/25 09:27:31;;;;;;;1.55;0.70;;;19.30;54.60;;;;;;6241338;28;20090;-74
2022/12/25 09:30:32;;;;;;;1.38;0.50;;;19.30;54.50;;;;;;6223692;28;20026;-74
2022/12/25 09:33:32;;;;;;;1.15;0.60;;;19.30;54.50;;;;;;6222711;28;20060;-73
2022/12/25 09:36:33;;;;;;;1.42;0.77;;;19.40;54.60;;;;;;6239757;28;20046;-73
2022/12/25 09:39:33;;;;;;;0.95;0.65;;;19.30;54.60;;;;;;6240328;28;20025;-73
2022/12/25 09:42:34;;;;;;;0.80;0.70;;;19.30;54.50;;;;;;6241427;28;20071;-73
2022/12/25 09:45:37;;;;;;;0.47;0.40;;;19.30;54.50;;;;;;6237236;28;20044;-73
2022/12/25 09:48:41;;;;;;;2.10;0.80;;;19.40;54.50;;;;;;6241603;28;20025;-74
2022/12/25 09:51:44;;;;;;;0.98;0.60;;;19.40;54.50;;;;;;6240324;28;20037;-73
2022/12/25 09:55:11;;;;;;;0.50;0.50;;;19.40;54.50;;;;;;6214984;28;20083;-74
2022/12/25 09:58:12;;;;;;;0.50;0.50;;;19.40;54.50;;;;;;6226105;28;20064;-73
2022/12/25 10:01:31;;;;;;;1.10;0.50;;;19.40;54.50;;;;;;6247579;28;20026;-73
2022/12/25 10:04:41;;;;;;;2.08;0.80;;;19.40;54.40;;;;;;6245890;28;20022;-74
2022/12/25 10:08:05;;;;;;;0.70;0.60;;;19.30;54.40;;;;;;6242477;28;20029;-74
2022/12/25 10:11:26;;;;;;;0.63;0.60;;;19.40;54.40;;;;;;6230394;28;20383;-73
2022/12/25 10:14:34;;;;;;;1.00;0.60;;;19.40;54.40;;;;;;6245483;28;20048;-73
2022/12/25 10:17:41;;;;;;;0.98;0.65;;;19.40;54.40;;;;;;6245434;28;20059;-74
2022/12/25 10:20:51;;;;;;;1.30;0.75;;;19.40;54.40;;;;;;6245952;28;20025;-73
2022/12/25 10:24:13;;;;;;;1.75;0.70;;;19.40;54.40;;;;;;6251749;28;20017;-74
2022/12/25 10:27:37;;;;;;;1.60;0.80;;;19.40;54.40;;;;;;6267526;28;20025;-74
2022/12/25 10:30:41;;;;;;;0.90;0.60;;;19.40;54.30;;;;;;6265707;28;20048;-73
2022/12/25 10:33:42;;;;;;;0.77;0.60;;;19.40;54.30;;;;;;6266131;28;20018;-73
2022/12/25 10:36:44;;;;;;;1.83;0.88;;;19.40;54.30;;;;;;6269638;28;20055;-73
2022/12/25 10:39:45;;;;;;;1.38;0.70;;;19.40;54.30;;;;;;6266210;28;20510;-73
2022/12/25 10:42:48;;;;;;;1.13;0.80;;;19.40;54.30;;;;;;6261261;28;20025;-73
2022/12/25 10:45:49;;;;;;;1.23;0.70;;;19.40;54.30;;;;;;6261702;28;20021;-74
2022/12/25 10:48:53;;;;;;;3.00;0.80;;;19.40;54.30;;;;;;6239794;28;20055;-73
2022/12/25 10:51:54;;;;;;;1.45;0.73;;;19.50;54.50;;;;;;6239895;28;20117;-73
2022/12/25 10:54:55;;;;;;;7.20;1.63;;;19.50;54.50;;;;;;6221687;28;20026;-74
2022/12/25 10:57:57;;;;;;;0.93;0.70;;;19.50;54.40;;;;;;6229490;28;20377;-73
2022/12/25 11:01:03;;;;;;;1.00;0.77;;;19.50;54.40;;;;;;6262240;28;20540;-73
2022/12/25 11:04:04;;;;;;;1.55;0.88;;;19.60;55.00;;;;;;6266874;28;20025;-73
2022/12/25 11:07:12;;;;;;;3.55;1.00;;;19.70;54.10;;;;;;6263255;28;20032;-74
2022/12/25 11:10:27;;;;;;;2.80;0.80;;;19.80;54.10;;;;;;6245985;28;20017;-74
2022/12/25 11:13:29;;;;;;;7.00;1.47;;;19.80;54.20;;;;;;6244432;28;20052;-73
2022/12/25 11:16:38;;;;;;;7.32;1.00;;;19.80;54.30;;;;;;6263707;28;20472;-73
2022/12/25 11:19:39;;;;;;;2.38;0.80;;;19.80;54.30;;;;;;6265222;28;20037;-74
2022/12/25 11:22:44;;;;;;;3.75;1.10;;;19.70;54.20;;;;;;6244967;28;20144;-73
2022/12/25 11:25:56;;;;;;;2.00;1.40;;;19.70;54.10;;;;;;6254198;28;20064;-74
2022/12/25 11:28:57;;;;;;;2.38;0.70;;;19.70;54.10;;;;;;6267946;28;20056;-74
2022/12/25 11:32:01;;;;;;;4.57;0.98;;;19.70;54.10;;;;;;6246874;28;20052;-74
2022/12/25 11:35:02;;;;;;;1.92;1.05;;;19.70;54.10;;;;;;6250221;28;20028;-74
2022/12/25 11:38:03;;;;;;;3.55;1.20;;;19.70;54.00;;;;;;6269436;28;20033;-74
2022/12/25 11:41:05;;;;;;;1.70;0.95;;;19.80;54.10;;;;;;6255600;28;20033;-74
2022/12/25 11:44:34;;;;;;;1.67;1.00;;;19.70;53.90;;;;;;6259357;28;20025;-73
2022/12/25 11:47:55;;;;;;;3.22;0.85;;;19.70;53.90;;;;;;6219842;28;20026;-74
2022/12/25 11:51:01;;;;;;;3.15;1.08;;;19.80;53.90;;;;;;6241707;28;20475;-74
2022/12/25 11:54:27;;;;;;;2.00;1.00;;;19.80;53.90;;;;;;6269191;28;20036;-73
2022/12/25 11:57:30;;;;;;;2.78;1.08;;;19.80;53.80;;;;;;6216079;28;20041;-73
2022/12/25 12:00:34;;;;;;;2.35;1.00;;;19.80;53.80;;;;;;6231165;28;20147;-73
2022/12/25 12:03:37;;;;;;;2.92;1.30;;;19.80;53.80;;;;;;6268756;28;20379;-74
2022/12/25 12:06:58;;;;;;;1.45;0.98;;;19.80;53.70;;;;;;6253964;28;20064;-73
2022/12/25 12:10:08;;;;;;;1.58;1.15;;;19.80;53.70;;;;;;6243703;28;20108;-74
2022/12/25 12:13:27;;;;;;;2.33;1.13;;;19.80;53.70;;;;;;6268101;28;20066;-73
2022/12/25 12:16:28;;;;;;;2.20;1.15;;;19.80;53.70;;;;;;6256801;28;20025;-73
2022/12/25 12:19:30;;;;;;;1.20;1.00;;;19.80;53.70;;;;;;6243482;28;20033;-74
2022/12/25 12:22:31;;;;;;;2.67;1.20;;;19.80;53.60;;;;;;6263315;28;20049;-74
2022/12/25 12:25:38;;;;;;;2.28;1.00;;;19.80;53.60;;;;;;6264695;28;20051;-74
2022/12/25 12:28:44;;;;;;;1.33;1.00;;;19.80;53.60;;;;;;6243768;28;20037;-74
2022/12/25 12:31:48;;;;;;;1.75;1.00;;;19.80;53.60;;;;;;6255292;28;20075;-73
2022/12/25 12:34:49;;;;;;;1.15;0.88;;;19.80;53.60;;;;;;6267255;28;20032;-73
2022/12/25 12:37:56;;;;;;;1.50;1.00;;;19.80;53.50;;;;;;6247345;28;20437;-73
2022/12/25 12:41:03;;;;;;;3.25;1.05;;;19.80;53.50;;;;;;6245600;28;20032;-74
2022/12/25 12:44:04;;;;;;;2.33;1.48;;;19.80;53.50;;;;;;6253262;28;20018;-74
2022/12/25 12:47:05;;;;;;;2.42;1.08;;;19.90;53.60;;;;;;6255831;28;20025;-73
2022/12/25 12:50:07;;;;;;;3.28;1.10;;;19.90;54.20;;;;;;6268087;28;20084;-74
2022/12/25 12:53:28;;;;;;;1.73;1.00;;;19.80;53.50;;;;;;6246710;28;20034;-73
2022/12/25 12:56:30;;;;;;;1.27;0.90;;;19.80;53.60;;;;;;6249334;28;20049;-74
2022/12/25 12:59:45;;;;;;;1.60;1.10;;;19.80;53.50;;;;;;6267570;28;20032;-74
2022/12/25 13:03:03;;;;;;;1.50;1.00;;;19.80;53.40;;;;;;6250816;28;20036;-74
2022/12/25 13:06:32;;;;;;;1.60;1.10;;;19.90;53.50;;;;;;6244067;28;20026;-73
2022/12/25 13:09:58;;;;;;;2.50;1.15;;;19.80;53.40;;;;;;6241168;28;20047;-73
2022/12/25 13:13:21;;;;;;;1.27;0.90;;;19.80;53.40;;;;;;6257833;28;20037;-74
2022/12/25 13:16:25;;;;;;;1.80;1.27;;;19.90;53.50;;;;;;6264734;28;20669;-74
2022/12/25 13:19:28;;;;;;;1.13;0.93;;;19.90;53.60;;;;;;6242427;28;20552;-74
2022/12/25 13:22:34;;;;;;;1.88;1.08;;;19.90;53.60;;;;;;6253782;28;20198;-74
2022/12/25 13:25:35;;;;;;;1.80;1.08;;;19.90;53.50;;;;;;6267296;28;20051;-74
2022/12/25 13:28:36;;;;;;;1.73;1.23;;;19.90;53.50;;;;;;6247226;28;20025;-74
2022/12/25 13:31:39;;;;;;;1.10;0.90;;;19.90;53.50;;;;;;6249547;28;20031;-73
2022/12/25 13:34:41;;;;;;;2.00;1.25;;;19.90;53.50;;;;;;6272347;28;20029;-74
2022/12/25 13:37:42;;;;;;;1.15;0.93;;;19.90;53.50;;;;;;6261074;28;20045;-75
2022/12/25 13:44:24;;;;;;;1.52;1.00;;;19.90;53.50;;;;;;6253834;28;20033;-74
2022/12/25 13:47:29;;;;;;;1.23;0.80;;;19.90;53.40;;;;;;6254454;28;20067;-74
2022/12/25 13:50:32;;;;;;;1.42;0.77;;;19.90;53.50;;;;;;6272103;28;20530;-74
2022/12/25 13:53:33;;;;;;;1.50;1.08;;;19.90;53.40;;;;;;6255578;28;20534;-74
2022/12/25 13:56:34;;;;;;;1.55;1.00;;;19.90;53.50;;;;;;6246240;28;20030;-74
2022/12/25 13:59:36;;;;;;;1.27;1.05;;;19.90;53.40;;;;;;6270392;28;20020;-74
2022/12/25 14:02:38;;;;;;;3.03;1.13;;;19.90;53.40;;;;;;6264454;28;20040;-74
2022/12/25 14:05:38;;;;;;;1.02;0.93;;;19.90;53.50;;;;;;6246679;28;20361;-73
2022/12/25 14:08:39;;;;;;;1.15;0.90;;;19.90;53.30;;;;;;6260939;28;20029;-74
2022/12/25 14:11:47;;;;;;;1.92;0.95;;;19.90;53.40;;;;;;6255459;28;20491;-73
2022/12/25 14:14:49;;;;;;;2.13;1.00;;;19.90;53.40;;;;;;6269940;28;20060;-73
2022/12/25 14:17:51;;;;;;;1.52;0.98;;;19.90;53.40;;;;;;6262438;28;20032;-73
2022/12/25 14:20:57;;;;;;;1.23;0.82;;;19.90;53.40;;;;;;6246465;28;20525;-74
2022/12/25 14:23:58;;;;;;;1.35;0.93;;;19.90;54.00;;;;;;6261288;28;20025;-73
2022/12/25 14:27:06;;;;;;;1.58;1.02;;;19.90;53.30;;;;;;6235509;28;20057;-74
2022/12/25 14:30:11;;;;;;;5.72;1.20;;;20.00;53.40;;;;;;6229951;28;20022;-73
2022/12/25 14:33:19;;;;;;;2.25;1.20;;;20.00;53.50;;;;;;6249525;28;20025;-74
2022/12/25 14:36:20;;;;;;;2.15;1.20;;;20.00;53.30;;;;;;6237988;28;20068;-73
2022/12/25 14:39:36;;;;;;;1.85;1.02;;;20.00;53.40;;;;;;6252010;28;20033;-73
2022/12/25 14:42:38;;;;;;;2.17;1.15;;;20.00;53.40;;;;;;6252903;28;20049;-74
2022/12/25 14:45:38;;;;;;;2.33;1.17;;;20.00;53.40;;;;;;6264217;28;20108;-74
2022/12/25 14:48:39;;;;;;;6.50;1.80;;;20.00;53.40;;;;;;6262676;28;20021;-74
2022/12/25 14:51:42;;;;;;;6.50;1.60;;;20.00;53.20;;;;;;6269024;28;20404;-74
2022/12/25 14:54:57;;;;;;;4.50;1.50;;;19.90;53.20;;;;;;6250558;28;20253;-74
2022/12/25 14:58:03;;;;;;;5.65;1.30;;;20.00;53.30;;;;;;6251934;28;20599;-73
2022/12/25 15:01:04;;;;;;;4.15;1.50;;;20.00;53.30;;;;;;6243558;28;20026;-74
2022/12/25 15:04:06;;;;;;;2.13;1.30;;;20.00;53.30;;;;;;6254471;28;20475;-74
2022/12/25 15:07:25;;;;;;;3.05;1.25;;;20.00;53.30;;;;;;6248460;28;20036;-74
2022/12/25 15:10:26;;;;;;;3.38;1.65;;;20.00;53.30;;;;;;6247195;28;20112;-74
2022/12/25 15:13:28;;;;;;;2.72;1.67;;;20.00;53.40;;;;;;6254623;28;20155;-73
2022/12/25 15:16:33;;;;;;;2.75;1.20;;;20.00;53.40;;;;;;6243829;28;20037;-74
2022/12/25 15:19:36;;;;;;;3.95;1.48;;;20.00;54.10;;;;;;6257567;28;20530;-74
2022/12/25 15:22:37;;;;;;;6.75;1.70;;;20.00;53.40;;;;;;6249055;28;20451;-74
2022/12/25 15:25:37;;;;;;;2.65;1.50;;;20.00;53.40;;;;;;6247908;28;20025;-74
2022/12/25 15:28:38;;;;;;;3.20;1.70;;;20.00;53.40;;;;;;6253834;28;20110;-74
2022/12/25 15:31:39;;;;;;;2.90;1.30;;;20.00;53.40;;;;;;6240593;28;20056;-74
2022/12/25 15:34:39;;;;;;;3.10;1.50;;;20.00;53.40;;;;;;6254411;28;20030;-74
2022/12/25 15:37:40;;;;;;;1.80;1.02;;;20.00;53.40;;;;;;6247422;28;20056;-74
2022/12/25 15:40:41;;;;;;;5.18;1.42;;;20.00;53.40;;;;;;6266180;28;20438;-74
2022/12/25 15:43:42;;;;;;;8.30;2.83;;;20.00;53.40;;;;;;6250627;28;20017;-74
2022/12/25 15:46:42;;;;;;;4.63;2.60;;;20.00;53.50;;;;;;6243291;28;20024;-74
2022/12/25 15:49:43;;;;;;;7.78;3.25;;;20.00;53.50;;;;;;6253255;28;20136;-74
2022/12/25 15:52:44;;;;;;;8.85;1.85;;;20.00;53.60;;;;;;6244032;28;20029;-74
2022/12/25 15:55:45;;;;;;;15.23;4.10;;;20.00;53.70;;;;;;6230689;28;20033;-74
2022/12/25 15:58:45;;;;;;;16.25;3.75;;;20.00;53.60;;;;;;6252663;28;20511;-74
2022/12/25 16:01:49;;;;;;;7.88;2.92;;;20.00;53.70;;;;;;6241276;28;20025;-74
2022/12/25 16:04:49;;;;;;;10.13;2.88;;;20.00;53.70;;;;;;6251815;28;20044;-74
2022/12/25 16:07:50;;;;;;;5.28;2.47;;;20.00;53.70;;;;;;6244985;28;20026;-74
2022/12/25 16:10:52;;;;;;;4.30;1.88;;;20.00;53.80;;;;;;6248894;28;20029;-74
2022/12/25 16:13:53;;;;;;;8.05;2.95;;;20.00;53.80;;;;;;6241347;28;20472;-74
2022/12/25 16:16:53;;;;;;;6.20;2.88;;;20.00;53.90;;;;;;6242034;28;20033;-75
2022/12/25 16:19:54;;;;;;;7.32;2.42;;;20.00;53.90;;;;;;6251930;28;20018;-73
2022/12/25 16:22:55;;;;;;;20.85;5.15;;;20.00;53.90;;;;;;6241271;28;20480;-73
2022/12/25 16:25:55;;;;;;;7.75;3.20;;;20.00;53.90;;;;;;6242034;28;20033;-74
2022/12/25 16:28:56;;;;;;;9.75;3.25;;;20.00;53.80;;;;;;6246697;28;20047;-74
2022/12/25 16:31:56;;;;;;;5.85;2.53;;;20.00;53.90;;;;;;6240225;28;20018;-74
2022/12/25 16:34:57;;;;;;;6.82;3.13;;;20.00;53.90;;;;;;6238226;28;20112;-74
2022/12/25 16:37:58;;;;;;;7.10;3.08;;;19.90;53.80;;;;;;6241711;28;20037;-74
2022/12/25 16:41:00;;;;;;;7.82;3.50;;;20.00;53.90;;;;;;6248470;28;20507;-74
2022/12/25 16:44:08;;;;;;;8.35;3.33;;;20.00;53.90;;;;;;6245502;28;20100;-75
2022/12/25 16:47:08;;;;;;;12.50;3.95;;;20.00;54.00;;;;;;6244791;28;20156;-75
2022/12/25 16:50:09;;;;;;;10.80;3.20;;;20.00;53.90;;;;;;6248452;28;20049;-75
2022/12/25 16:53:11;;;;;;;9.18;3.33;;;20.00;53.80;;;;;;6241396;28;20026;-75
2022/12/25 16:56:19;;;;;;;7.43;3.65;;;20.00;53.80;;;;;;6247706;28;20029;-75
2022/12/25 16:59:19;;;;;;;11.32;4.30;;;20.00;53.90;;;;;;6245337;28;20036;-75
2022/12/25 17:02:20;;;;;;;5.25;2.72;;;19.90;53.90;;;;;;6229442;28;20038;-76
2022/12/25 17:05:24;;;;;;;7.47;3.38;;;19.90;54.00;;;;;;6235498;28;20029;-75
2022/12/25 17:08:25;;;;;;;9.18;3.72;;;19.90;54.00;;;;;;6241153;28;20026;-75
2022/12/25 17:11:28;;;;;;;8.63;3.50;;;19.90;54.10;;;;;;6260909;28;20029;-75
2022/12/25 17:14:29;;;;;;;6.63;3.60;;;19.90;54.20;;;;;;6260174;28;20033;-75
2022/12/25 17:17:29;;;;;;;9.88;3.10;;;19.80;54.20;;;;;;6209141;28;20203;-75
2022/12/25 17:20:30;;;;;;;7.60;3.20;;;19.80;54.10;;;;;;6238429;28;20037;-75
2022/12/25 17:23:30;;;;;;;6.43;3.20;;;19.80;54.10;;;;;;6238622;28;20098;-74
2022/12/25 17:26:32;;;;;;;13.52;3.42;;;19.80;54.10;;;;;;6236975;28;20068;-75
2022/12/25 17:29:33;;;;;;;12.13;4.20;;;19.90;54.30;;;;;;6240494;28;20071;-75
2022/12/25 17:32:34;;;;;;;23.27;5.80;;;19.90;54.30;;;;;;6236288;28;20105;-76
2022/12/25 17:35:36;;;;;;;23.10;3.50;;;19.90;54.10;;;;;;6231134;28;20111;-76
2022/12/25 17:38:37;;;;;;;10.75;3.42;;;19.90;54.10;;;;;;6265165;28;20071;-75
2022/12/25 17:41:38;;;;;;;8.73;3.63;;;19.90;54.10;;;;;;6251610;28;20022;-76